Federal Heights, Colorado
Current Conditions -  °F | °C
As of 3:47 PM on Thursday 20 Nov 2014 (Local Time) from KBJC Reporting Station
Broken Clouds Broken Clouds  
Wind Chill: 42°   Ceiling: 12000
Heat Index: 46°   Visibility: 50mi
Dew Point: 23°   Wind: 8mph
Humidity: 40%   Direction: 330°NNW
Pressure: 29.97"   Gusts: NA
Location:  39.9123°N, 105.004°W
Report Text: KBJC 202247Z 33007KT 50SM BKN120 08/M05 A2997
Loading
Personal Weather Stations






























Interactive Weather Map New forecast layout! Learn more

10-Day Weather Forecast

Advertisements
Track Severe Weather on mobile